createdAt,value
2023-03-13T00:02:20.749Z,97629.03
2023-03-13T00:04:47.489Z,97623.91
2023-03-13T00:07:14.542Z,97652.84
2023-03-13T00:09:41.289Z,97627.25
2023-03-13T00:12:08.145Z,97619.47
2023-03-13T00:14:34.790Z,97617.78
2023-03-13T00:17:03.103Z,97625.38
2023-03-13T00:19:29.956Z,97613.31
2023-03-13T00:21:56.629Z,97588.34
2023-03-13T00:24:23.321Z,97582.31
2023-03-13T00:26:50.012Z,97595.84
2023-03-13T00:29:16.654Z,97560.34
2023-03-13T00:31:43.457Z,97535.81
2023-03-13T00:34:10.652Z,97584.25
2023-03-13T00:36:37.812Z,97556.00
2023-03-13T00:39:07.366Z,97533.81
2023-03-13T00:41:34.421Z,97576.94
2023-03-13T00:44:01.242Z,97550.88
2023-03-13T00:46:30.305Z,97517.88
2023-03-13T00:48:57.914Z,97555.41
2023-03-13T00:51:27.101Z,97556.59
2023-03-13T00:53:55.195Z,97577.53
2023-03-13T00:56:22.594Z,97559.91
2023-03-13T00:58:50.430Z,97578.13
2023-03-13T01:01:26.529Z,97566.91
2023-03-13T01:03:56.013Z,97530.38
2023-03-13T01:06:26.528Z,97532.13
2023-03-13T01:08:53.929Z,97560.13
2023-03-13T01:11:23.505Z,97544.94
2023-03-13T01:13:53.605Z,97496.03
2023-03-13T01:16:22.120Z,97506.00
2023-03-13T01:18:52.430Z,97492.19
2023-03-13T01:21:20.452Z,97511.38
2023-03-13T01:23:48.725Z,97514.09
2023-03-13T01:26:15.927Z,97480.59
2023-03-13T01:28:43.124Z,97491.84
2023-03-13T01:31:19.266Z,97465.47
2023-03-13T01:33:47.448Z,97423.81
2023-03-13T01:36:15.207Z,97475.06
2023-03-13T01:38:42.310Z,97455.06
2023-03-13T01:41:11.840Z,97408.81
2023-03-13T01:43:38.647Z,97390.97
2023-03-13T01:46:19.371Z,97421.63
2023-03-13T01:48:52.107Z,97430.38
2023-03-13T01:51:33.974Z,97353.13
2023-03-13T01:54:04.211Z,97411.34
2023-03-13T01:57:00.357Z,97379.41
2023-03-13T01:59:31.768Z,97357.06
2023-03-13T02:02:01.549Z,97318.13
2023-03-13T02:04:31.884Z,97370.78
2023-03-13T02:07:03.865Z,97334.13
2023-03-13T02:09:32.945Z,97334.00
2023-03-13T02:12:22.840Z,97354.34
2023-03-13T02:14:51.636Z,97280.31
2023-03-13T02:17:18.626Z,97331.97
2023-03-13T02:19:48.508Z,97264.97
2023-03-13T02:22:21.353Z,97329.25
2023-03-13T02:25:11.050Z,97297.13
2023-03-13T02:27:37.902Z,97258.69
2023-03-13T02:30:05.648Z,97290.84
2023-03-13T02:32:32.681Z,97285.16
2023-03-13T02:35:06.614Z,97296.19
2023-03-13T02:37:33.702Z,97270.41
2023-03-13T02:40:06.167Z,97261.41
2023-03-13T02:42:32.946Z,97158.19
2023-03-13T02:44:59.700Z,97203.78
2023-03-13T02:47:26.520Z,97173.66
2023-03-13T02:49:53.201Z,97161.72
2023-03-13T02:52:38.963Z,97177.31
2023-03-13T02:55:11.087Z,97178.63
2023-03-13T02:57:37.812Z,97166.56
2023-03-13T03:00:07.302Z,97203.66
2023-03-13T03:02:33.996Z,97184.28
2023-03-13T03:05:00.709Z,97202.94
2023-03-13T03:07:27.455Z,97159.03
2023-03-13T03:09:54.120Z,97150.06
2023-03-13T03:12:20.841Z,97125.50
2023-03-13T03:14:47.692Z,97111.66
2023-03-13T03:17:14.518Z,97117.78
2023-03-13T03:19:41.268Z,97102.09
2023-03-13T03:22:08.092Z,97072.44
2023-03-13T03:24:34.776Z,97120.00
2023-03-13T03:27:01.457Z,97095.56
2023-03-13T03:29:28.226Z,97124.09
2023-03-13T03:31:55.270Z,97052.25
2023-03-13T03:34:22.906Z,97078.53
2023-03-13T03:36:49.675Z,97060.94
2023-03-13T03:39:16.479Z,97012.56
2023-03-13T03:41:43.166Z,97028.41
2023-03-13T03:44:09.917Z,97013.34
2023-03-13T03:46:36.581Z,97001.16
2023-03-13T03:49:03.315Z,96987.69
2023-03-13T03:51:30.037Z,96973.19
2023-03-13T03:53:56.804Z,96983.53
2023-03-13T03:56:23.590Z,96967.59
2023-03-13T03:58:50.356Z,96994.97
2023-03-13T04:01:17.078Z,96937.94
2023-03-13T04:03:43.887Z,96951.06
2023-03-13T04:06:10.697Z,96952.16
2023-03-13T04:08:37.362Z,96915.56
2023-03-13T04:11:04.132Z,96933.81
2023-03-13T04:13:30.862Z,96894.78
2023-03-13T04:15:57.566Z,96878.88
2023-03-13T04:18:24.308Z,96891.53
2023-03-13T04:20:51.053Z,96910.84
2023-03-13T04:23:17.758Z,96853.28
2023-03-13T04:25:44.498Z,96845.34
2023-03-13T04:28:11.189Z,96847.88
2023-03-13T04:30:37.893Z,96844.19
2023-03-13T04:33:04.760Z,96794.53
2023-03-13T04:35:32.391Z,96784.75
2023-03-13T04:38:01.235Z,96794.00
2023-03-13T04:40:28.135Z,96773.81
2023-03-13T04:42:54.845Z,96780.19
2023-03-13T04:45:21.573Z,96829.34
2023-03-13T04:47:48.242Z,96755.25
2023-03-13T04:50:15.291Z,96800.44
2023-03-13T04:52:41.938Z,96791.53
2023-03-13T04:55:09.500Z,96790.34
2023-03-13T04:57:36.208Z,96740.31
2023-03-13T05:00:05.450Z,96745.66
2023-03-13T05:02:32.120Z,96687.84
2023-03-13T05:04:58.894Z,96730.13
2023-03-13T05:07:25.656Z,96710.50
2023-03-13T05:09:52.381Z,96687.66
2023-03-13T05:12:19.124Z,96722.38
2023-03-13T05:14:45.805Z,96685.25
2023-03-13T05:17:14.545Z,96675.09
2023-03-13T05:19:41.249Z,96708.56
2023-03-13T05:22:07.928Z,96696.50
2023-03-13T05:24:34.649Z,96692.53
2023-03-13T05:27:02.682Z,96721.03
2023-03-13T05:29:29.379Z,96686.38
2023-03-13T05:31:56.175Z,96616.94
2023-03-13T05:34:22.974Z,96640.22
2023-03-13T05:36:49.864Z,96652.97
2023-03-13T05:39:16.700Z,96606.28
2023-03-13T05:41:43.393Z,96660.94
2023-03-13T05:44:10.109Z,96628.19
2023-03-13T05:46:36.838Z,96632.56
2023-03-13T05:49:03.641Z,96644.75
2023-03-13T05:51:30.343Z,96635.84
2023-03-13T05:53:57.056Z,96658.31
2023-03-13T05:56:23.825Z,96608.44
2023-03-13T05:58:50.561Z,96638.56
2023-03-13T06:01:17.283Z,96622.97
2023-03-13T06:03:44.144Z,96635.28
2023-03-13T06:06:10.974Z,96629.00
2023-03-13T06:08:37.693Z,96617.59
2023-03-13T06:11:04.611Z,96641.38
2023-03-13T06:13:31.347Z,96620.59
2023-03-13T06:15:58.532Z,96613.72
2023-03-13T06:18:25.678Z,96596.78
2023-03-13T06:20:58.758Z,96624.91
2023-03-13T06:23:25.931Z,96572.47
2023-03-13T06:25:53.090Z,96502.16
2023-03-13T06:28:19.792Z,96447.47
2023-03-13T06:30:46.902Z,96490.38
2023-03-13T06:33:13.645Z,96490.63
2023-03-13T06:35:55.106Z,96531.69
2023-03-13T06:38:24.876Z,96562.34
2023-03-13T06:40:51.709Z,96531.66
2023-03-13T06:43:18.973Z,96543.72
2023-03-13T06:45:45.992Z,96552.66
2023-03-13T06:48:12.732Z,96526.63
2023-03-13T06:50:40.416Z,96549.78
2023-03-13T06:53:07.286Z,96529.78
2023-03-13T06:55:34.255Z,96516.78
2023-03-13T06:58:01.030Z,96498.56
2023-03-13T07:00:27.984Z,96489.16
2023-03-13T07:02:54.727Z,96494.78
2023-03-13T07:05:21.462Z,96491.66
2023-03-13T07:07:48.206Z,96482.59
2023-03-13T07:10:14.916Z,96477.81
2023-03-13T07:12:41.654Z,96456.06
2023-03-13T07:15:08.691Z,96520.91
2023-03-13T07:17:35.605Z,96490.69
2023-03-13T07:20:03.231Z,96487.13
2023-03-13T07:22:30.037Z,96488.63
2023-03-13T07:24:56.736Z,96471.25
2023-03-13T07:27:23.723Z,96491.91
2023-03-13T07:29:50.442Z,96485.75
2023-03-13T07:32:17.232Z,96500.66
2023-03-13T07:34:46.708Z,96476.44
2023-03-13T07:37:14.429Z,96498.06
2023-03-13T07:39:42.927Z,96494.63
2023-03-13T07:42:13.540Z,96512.00
2023-03-13T07:44:40.283Z,96495.31
2023-03-13T07:47:07.026Z,96499.97
2023-03-13T07:49:34.023Z,96496.97
2023-03-13T07:52:00.717Z,96496.69
2023-03-13T07:54:27.464Z,96460.72
2023-03-13T07:56:54.193Z,96481.25
2023-03-13T07:59:20.880Z,96488.09
2023-03-13T08:01:47.611Z,96457.72
2023-03-13T08:04:14.729Z,96446.66
2023-03-13T08:06:42.303Z,96473.84
2023-03-13T08:09:09.907Z,96475.91
2023-03-13T08:11:44.703Z,96497.41
2023-03-13T08:14:11.437Z,96471.53
2023-03-13T08:16:38.690Z,96459.88
2023-03-13T08:19:06.282Z,96498.59
2023-03-13T08:21:35.864Z,96493.69
2023-03-13T08:24:07.712Z,96466.34
2023-03-13T08:26:36.492Z,96493.97
2023-03-13T08:29:10.051Z,96485.22
2023-03-13T08:31:48.067Z,96490.38
2023-03-13T08:34:16.558Z,96480.97
2023-03-13T08:36:43.640Z,96458.53
2023-03-13T08:39:13.850Z,96509.56
2023-03-13T08:41:43.306Z,96467.13
2023-03-13T08:44:20.630Z,96531.84
2023-03-13T08:46:49.413Z,96525.91
2023-03-13T08:49:17.764Z,96529.22
2023-03-13T08:51:44.681Z,96483.22
2023-03-13T08:54:11.480Z,96462.38
2023-03-13T08:56:38.543Z,96460.56
2023-03-13T08:59:06.118Z,96522.91
2023-03-13T09:01:34.821Z,96528.34
2023-03-13T09:04:04.510Z,96518.28
2023-03-13T09:06:36.157Z,96519.66
2023-03-13T09:09:04.282Z,96497.34
2023-03-13T09:11:33.333Z,96503.34
2023-03-13T09:14:00.074Z,96504.88
2023-03-13T09:16:29.727Z,96504.47
2023-03-13T09:18:57.407Z,96538.50
2023-03-13T09:21:27.130Z,96562.78
2023-03-13T09:23:54.082Z,96536.19
2023-03-13T09:26:23.130Z,96556.53
2023-03-13T09:28:51.445Z,96575.22
2023-03-13T09:31:30.473Z,96538.22
2023-03-13T09:33:57.616Z,96582.56
2023-03-13T09:36:25.122Z,96566.31
2023-03-13T09:38:53.401Z,96578.69
2023-03-13T09:41:53.367Z,96618.88
2023-03-13T09:44:23.302Z,96612.47
2023-03-13T09:47:04.310Z,96618.47
2023-03-13T09:49:42.634Z,96635.66
2023-03-13T09:52:17.203Z,96597.75
2023-03-13T09:55:02.600Z,96637.09
2023-03-13T09:57:36.401Z,96640.47
2023-03-13T10:00:14.295Z,96609.19
2023-03-13T10:02:47.763Z,96642.88
2023-03-13T10:05:17.886Z,96653.91
2023-03-13T10:07:44.937Z,96651.91
2023-03-13T10:10:22.115Z,96660.63
2023-03-13T10:12:52.751Z,96606.78
2023-03-13T10:15:27.641Z,96661.13
2023-03-13T10:17:54.775Z,96651.13
2023-03-13T10:20:26.238Z,96613.56
2023-03-13T10:22:59.783Z,96619.03
2023-03-13T10:25:35.679Z,96616.94
2023-03-13T10:28:02.595Z,96635.25
2023-03-13T10:30:32.547Z,96692.22
2023-03-13T10:33:20.928Z,96684.69
2023-03-13T10:36:01.201Z,96692.69
2023-03-13T10:38:28.013Z,96684.78
2023-03-13T10:40:59.741Z,96702.47
2023-03-13T10:43:27.913Z,96685.63
2023-03-13T10:45:55.187Z,96680.44
2023-03-13T10:48:24.706Z,96718.59
2023-03-13T10:50:54.558Z,96682.69
2023-03-13T10:53:39.168Z,96677.28
2023-03-13T10:56:35.067Z,96724.84
2023-03-13T10:59:01.958Z,96741.19
2023-03-13T11:01:34.070Z,96730.38
2023-03-13T11:04:19.987Z,96758.06
2023-03-13T11:07:04.086Z,96735.06
2023-03-13T11:09:31.461Z,96743.31
2023-03-13T11:12:05.804Z,96771.84
2023-03-13T11:14:32.680Z,96750.50
2023-03-13T11:17:38.997Z,96775.25
2023-03-13T11:20:08.825Z,96780.06
2023-03-13T11:22:35.540Z,96798.44
2023-03-13T11:25:23.856Z,96805.03
2023-03-13T11:28:33.320Z,96788.78
2023-03-13T11:31:08.372Z,96814.09
2023-03-13T11:33:47.523Z,96825.28
2023-03-13T11:36:17.061Z,96816.13
2023-03-13T11:38:49.848Z,96796.53
2023-03-13T11:41:32.475Z,96839.56
2023-03-13T11:44:14.359Z,96842.63
2023-03-13T11:46:54.791Z,96835.53
2023-03-13T11:49:46.280Z,96865.97
2023-03-13T11:52:26.223Z,96867.13
2023-03-13T11:55:09.539Z,96850.50
2023-03-13T11:57:42.307Z,96861.22
2023-03-13T12:00:25.005Z,96878.06
2023-03-13T12:03:30.753Z,96866.88
2023-03-13T12:06:00.369Z,96816.00
2023-03-13T12:08:39.174Z,96858.16
2023-03-13T12:11:29.288Z,96872.09
2023-03-13T12:14:08.524Z,96880.78
2023-03-13T12:17:03.178Z,96838.38
2023-03-13T12:20:15.795Z,96844.63
2023-03-13T12:23:08.792Z,96854.16
2023-03-13T12:25:48.189Z,96883.84
2023-03-13T12:28:27.198Z,96894.22
2023-03-13T12:31:18.447Z,96883.84
2023-03-13T12:34:10.924Z,96881.25
2023-03-13T12:37:06.999Z,96918.75
2023-03-13T12:39:51.333Z,96907.19
2023-03-13T12:42:30.271Z,96918.63
2023-03-13T12:44:59.151Z,96919.47
2023-03-13T12:48:04.399Z,96908.13
2023-03-13T12:50:36.793Z,96931.81
2023-03-13T12:53:31.398Z,96927.59
2023-03-13T12:56:41.537Z,96942.53
2023-03-13T12:59:47.556Z,96950.78
2023-03-13T13:02:21.528Z,96945.38
2023-03-13T13:04:51.097Z,96960.38
2023-03-13T13:07:28.456Z,96969.22
2023-03-13T13:10:09.749Z,96946.81
2023-03-13T13:12:38.734Z,96976.28
2023-03-13T13:15:17.829Z,96958.72
2023-03-13T13:18:27.638Z,96969.81
2023-03-13T13:21:05.052Z,96989.84
2023-03-13T13:23:37.035Z,96980.91
2023-03-13T13:26:29.878Z,96980.91
2023-03-13T13:29:01.707Z,96976.75
2023-03-13T13:31:51.271Z,96990.69
2023-03-13T13:34:36.196Z,97002.84
2023-03-13T13:37:11.988Z,97004.38
2023-03-13T13:39:50.326Z,97006.66
2023-03-13T13:42:43.995Z,97010.44
2023-03-13T13:45:16.777Z,97017.00
2023-03-13T13:47:49.615Z,97028.66
2023-03-13T13:50:21.058Z,97034.94
2023-03-13T13:52:49.051Z,97026.34
2023-03-13T13:55:34.417Z,97044.72
2023-03-13T13:58:14.309Z,97011.28
2023-03-13T14:01:11.376Z,97064.69
2023-03-13T14:03:43.354Z,97058.38
2023-03-13T14:06:17.419Z,97043.41
2023-03-13T14:08:47.057Z,97029.94
2023-03-13T14:11:36.870Z,97082.00
2023-03-13T14:14:10.971Z,97081.31
2023-03-13T14:16:39.172Z,97099.41
2023-03-13T14:19:05.999Z,97092.22
2023-03-13T14:21:33.438Z,97106.13
2023-03-13T14:24:00.224Z,97095.78
2023-03-13T14:26:29.320Z,97087.63
2023-03-13T14:29:07.397Z,97128.63
2023-03-13T14:31:37.029Z,97111.81
2023-03-13T14:34:06.646Z,97126.63
2023-03-13T14:36:50.844Z,97119.50
2023-03-13T14:39:42.676Z,97145.66
2023-03-13T14:42:13.273Z,97184.53
2023-03-13T14:44:43.022Z,97180.50
2023-03-13T14:47:26.992Z,97182.56
2023-03-13T14:50:26.438Z,97192.31
2023-03-13T14:52:58.380Z,97142.69
2023-03-13T14:55:24.995Z,97215.03
2023-03-13T14:58:20.999Z,97230.69
2023-03-13T15:00:49.062Z,97228.31
2023-03-13T15:03:25.768Z,97229.94
2023-03-13T15:06:17.653Z,97229.16
2023-03-13T15:08:51.746Z,97260.56
2023-03-13T15:11:27.530Z,97235.59
2023-03-13T15:13:55.108Z,97262.19
2023-03-13T15:16:23.293Z,97251.84
2023-03-13T15:18:51.499Z,97239.13
2023-03-13T15:21:30.387Z,97294.75
2023-03-13T15:24:01.503Z,97315.34
2023-03-13T15:26:29.072Z,97279.69
2023-03-13T15:28:55.819Z,97301.63
2023-03-13T15:31:28.005Z,97298.53
2023-03-13T15:34:00.264Z,97291.44
2023-03-13T15:36:28.929Z,97323.38
2023-03-13T15:38:55.939Z,97288.63
2023-03-13T15:41:23.422Z,97316.59
2023-03-13T15:43:55.413Z,97338.19
2023-03-13T15:46:23.459Z,97301.31
2023-03-13T15:48:51.581Z,97341.28
2023-03-13T15:51:18.565Z,97365.06
2023-03-13T15:53:46.454Z,97336.59
2023-03-13T15:56:22.985Z,97327.84
2023-03-13T15:58:51.302Z,97348.41
2023-03-13T16:01:19.133Z,97325.63
2023-03-13T16:03:46.529Z,97376.44
2023-03-13T16:06:17.892Z,97358.19
2023-03-13T16:08:45.425Z,97308.59
2023-03-13T16:11:15.018Z,97369.22
2023-03-13T16:13:42.276Z,97394.59
2023-03-13T16:16:18.942Z,97344.38
2023-03-13T16:18:45.617Z,97376.56
2023-03-13T16:21:22.228Z,97383.84
2023-03-13T16:23:49.298Z,97367.81
2023-03-13T16:26:21.861Z,97396.69
2023-03-13T16:28:49.114Z,97416.97
2023-03-13T16:31:23.552Z,97421.72
2023-03-13T16:33:53.868Z,97418.81
2023-03-13T16:36:28.230Z,97424.84
2023-03-13T16:38:55.135Z,97405.47
2023-03-13T16:41:27.701Z,97424.41
2023-03-13T16:43:55.595Z,97453.59
2023-03-13T16:46:32.878Z,97399.84
2023-03-13T16:48:59.889Z,97417.16
2023-03-13T16:51:28.263Z,97470.06
2023-03-13T16:53:57.662Z,97461.19
2023-03-13T16:56:30.533Z,97478.00
2023-03-13T16:58:58.539Z,97508.44
2023-03-13T17:01:26.250Z,97476.56
2023-03-13T17:03:53.644Z,97502.91
2023-03-13T17:06:33.127Z,97503.25
2023-03-13T17:09:04.056Z,97522.41
2023-03-13T17:11:33.619Z,97484.25
2023-03-13T17:14:00.528Z,97483.22
2023-03-13T17:16:33.540Z,97470.53
2023-03-13T17:19:01.654Z,97454.94
2023-03-13T17:21:32.004Z,97479.31
2023-03-13T17:24:00.778Z,97550.16
2023-03-13T17:26:40.441Z,97431.13
2023-03-13T17:29:08.608Z,97500.44
2023-03-13T17:31:38.673Z,97573.06
2023-03-13T17:34:06.894Z,97575.06
2023-03-13T17:36:34.966Z,97545.38
2023-03-13T17:39:05.515Z,97586.16
2023-03-13T17:41:34.882Z,97559.91
2023-03-13T17:44:03.727Z,97530.53
2023-03-13T17:46:42.337Z,97588.38
2023-03-13T17:49:12.469Z,97545.00
2023-03-13T17:51:41.723Z,97507.22
2023-03-13T17:54:09.363Z,97584.31
2023-03-13T17:56:39.562Z,97608.72
2023-03-13T17:59:14.834Z,97554.63
2023-03-13T18:01:42.532Z,97609.78
2023-03-13T18:04:10.580Z,97518.59
2023-03-13T18:06:40.614Z,97649.53
2023-03-13T18:09:12.465Z,97607.50
2023-03-13T18:11:40.028Z,97554.19
2023-03-13T18:14:09.560Z,97675.59
2023-03-13T18:16:54.508Z,97681.09
2023-03-13T18:19:26.054Z,97674.50
2023-03-13T18:21:56.131Z,97637.16
2023-03-13T18:24:23.071Z,97665.56
2023-03-13T18:26:50.384Z,97609.44
2023-03-13T18:29:26.906Z,97672.22
2023-03-13T18:31:55.457Z,97713.44
2023-03-13T18:34:23.758Z,97724.06
2023-03-13T18:36:52.254Z,97744.72
2023-03-13T18:39:20.368Z,97728.13
2023-03-13T18:41:49.018Z,97705.78
2023-03-13T18:44:21.463Z,97721.41
2023-03-13T18:46:49.324Z,97707.75
2023-03-13T18:49:22.474Z,97664.13
2023-03-13T18:51:51.011Z,97758.31
2023-03-13T18:54:18.268Z,97775.69
2023-03-13T18:56:47.624Z,97752.53
2023-03-13T18:59:20.786Z,97779.66
2023-03-13T19:01:48.489Z,97784.59
2023-03-13T19:04:16.001Z,97783.63
2023-03-13T19:06:43.700Z,97796.66
2023-03-13T19:09:41.571Z,97769.53
2023-03-13T19:12:04.594Z,97729.09
2023-03-13T19:14:31.386Z,97794.22
2023-03-13T19:16:58.467Z,97804.72
2023-03-13T19:19:26.391Z,97790.72
2023-03-13T19:21:56.902Z,97789.84
2023-03-13T19:24:26.791Z,97824.66
2023-03-13T19:26:59.032Z,97779.66
2023-03-13T19:29:28.200Z,97775.00
2023-03-13T19:31:55.222Z,97808.25
2023-03-13T19:34:22.357Z,97851.63
2023-03-13T19:36:50.211Z,97844.16
2023-03-13T19:39:25.541Z,97879.41
2023-03-13T19:41:53.285Z,97890.28
2023-03-13T19:44:20.884Z,97870.84
2023-03-13T19:46:48.355Z,97879.44
2023-03-13T19:49:17.767Z,97911.00
2023-03-13T19:51:45.065Z,97905.66
2023-03-13T19:54:12.349Z,97920.66
2023-03-13T19:56:41.539Z,97910.16
2023-03-13T19:59:17.788Z,97914.81
2023-03-13T20:01:44.959Z,97886.88
2023-03-13T20:04:12.292Z,97921.56
2023-03-13T20:06:40.268Z,97910.00
2023-03-13T20:09:10.252Z,97915.38
2023-03-13T20:11:37.439Z,97923.72
2023-03-13T20:14:05.211Z,97984.69
2023-03-13T20:16:33.714Z,97933.09
2023-03-13T20:19:02.550Z,97952.13
2023-03-13T20:21:31.874Z,97989.16
2023-03-13T20:23:59.549Z,97944.13
2023-03-13T20:26:27.797Z,97985.56
2023-03-13T20:28:55.367Z,98017.34
2023-03-13T20:31:25.341Z,98024.66
2023-03-13T20:33:52.148Z,98003.88
2023-03-13T20:36:20.538Z,98031.03
2023-03-13T20:38:47.738Z,97976.78
2023-03-13T20:41:16.289Z,98035.94
2023-03-13T20:43:43.604Z,97997.97
2023-03-13T20:46:10.357Z,98033.69
2023-03-13T20:48:39.443Z,97987.19
2023-03-13T20:51:08.098Z,98072.84
2023-03-13T20:53:39.106Z,98052.28
2023-03-13T20:56:07.529Z,98081.75
2023-03-13T20:58:35.436Z,98030.28
2023-03-13T21:01:03.991Z,98088.81
2023-03-13T21:03:35.509Z,98056.66
2023-03-13T21:06:13.327Z,98093.78
2023-03-13T21:08:40.293Z,98092.00
2023-03-13T21:11:19.579Z,98027.03
2023-03-13T21:13:46.497Z,98044.19
2023-03-13T21:16:14.007Z,98103.66
2023-03-13T21:18:41.201Z,98110.06
2023-03-13T21:21:10.617Z,98036.81
2023-03-13T21:23:39.117Z,98114.63
2023-03-13T21:26:06.378Z,98097.78
2023-03-13T21:28:33.267Z,98113.38
2023-03-13T21:31:08.896Z,98099.31
2023-03-13T21:33:35.748Z,98114.38
2023-03-13T21:36:02.498Z,98110.31
2023-03-13T21:38:29.304Z,98096.47
2023-03-13T21:40:56.024Z,98131.31
2023-03-13T21:43:23.888Z,98098.44
2023-03-13T21:45:50.616Z,98145.50
2023-03-13T21:48:17.276Z,98135.47
2023-03-13T21:50:44.160Z,98160.91
2023-03-13T21:53:10.821Z,98133.31
2023-03-13T21:55:40.005Z,98162.47
2023-03-13T21:58:06.666Z,98116.91
2023-03-13T22:00:34.031Z,98158.03
2023-03-13T22:03:00.861Z,98122.38
2023-03-13T22:05:27.569Z,98181.13
2023-03-13T22:07:55.689Z,98164.72
2023-03-13T22:10:22.650Z,98182.75
2023-03-13T22:12:49.321Z,98213.53
2023-03-13T22:15:15.999Z,98200.44
2023-03-13T22:17:42.750Z,98213.13
2023-03-13T22:20:10.443Z,98213.19
2023-03-13T22:22:37.134Z,98187.97
2023-03-13T22:25:04.009Z,98219.84
2023-03-13T22:27:30.667Z,98200.00
2023-03-13T22:29:57.931Z,98212.91
2023-03-13T22:32:25.956Z,98198.56
2023-03-13T22:34:52.720Z,98178.44
2023-03-13T22:37:21.895Z,98231.88
2023-03-13T22:39:50.133Z,98270.59
2023-03-13T22:42:16.923Z,98240.94
2023-03-13T22:44:43.616Z,98200.59
2023-03-13T22:47:10.327Z,98227.72
2023-03-13T22:49:37.186Z,98269.34
2023-03-13T22:52:04.166Z,98270.59
2023-03-13T22:54:30.977Z,98291.09
2023-03-13T22:56:57.641Z,98248.59
2023-03-13T22:59:24.743Z,98272.97
2023-03-13T23:01:51.475Z,98298.19
2023-03-13T23:04:18.124Z,98300.53
2023-03-13T23:06:44.851Z,98286.00
2023-03-13T23:09:11.686Z,98306.47
2023-03-13T23:11:38.533Z,98328.47
2023-03-13T23:14:05.231Z,98330.63
2023-03-13T23:16:32.129Z,98336.34
2023-03-13T23:19:05.974Z,98326.84
2023-03-13T23:21:32.726Z,98336.22
2023-03-13T23:23:59.770Z,98340.81
2023-03-13T23:26:26.474Z,98351.97
2023-03-13T23:28:53.121Z,98316.91
2023-03-13T23:31:21.768Z,98355.88
2023-03-13T23:33:49.345Z,98376.69
2023-03-13T23:36:19.990Z,98347.91
2023-03-13T23:38:52.257Z,98377.94
2023-03-13T23:41:20.826Z,98346.03
2023-03-13T23:43:47.746Z,98346.84
2023-03-13T23:46:19.398Z,98398.91
2023-03-13T23:48:46.185Z,98393.75
2023-03-13T23:51:12.956Z,98396.38
2023-03-13T23:53:41.667Z,98415.44
2023-03-13T23:56:09.043Z,98382.72
2023-03-13T23:58:35.878Z,98393.81
